sensor_id;sensor_type;location;lat;lon;timestamp;P1;durP1;ratioP1;P2;durP2;ratioP2
9671;SDS011;4874;43.568;27.824;2023-08-12T00:01:52;4.63;;;3.28;;
9671;SDS011;4874;43.568;27.824;2023-08-12T00:04:19;7.53;;;3.33;;
9671;SDS011;4874;43.568;27.824;2023-08-12T00:06:45;4.47;;;2.90;;
9671;SDS011;4874;43.568;27.824;2023-08-12T00:09:12;5.25;;;3.15;;
9671;SDS011;4874;43.568;27.824;2023-08-12T00:11:41;4.22;;;3.08;;
9671;SDS011;4874;43.568;27.824;2023-08-12T00:14:08;4.40;;;3.00;;
9671;SDS011;4874;43.568;27.824;2023-08-12T00:16:35;4.82;;;2.88;;
9671;SDS011;4874;43.568;27.824;2023-08-12T00:19:01;4.63;;;3.05;;
9671;SDS011;4874;43.568;27.824;2023-08-12T00:21:28;4.82;;;3.08;;
9671;SDS011;4874;43.568;27.824;2023-08-12T00:23:55;5.50;;;3.15;;
9671;SDS011;4874;43.568;27.824;2023-08-12T00:26:22;5.45;;;2.95;;
9671;SDS011;4874;43.568;27.824;2023-08-12T00:28:49;8.45;;;3.25;;
9671;SDS011;4874;43.568;27.824;2023-08-12T00:31:16;4.35;;;2.55;;
9671;SDS011;4874;43.568;27.824;2023-08-12T00:33:43;4.82;;;2.83;;
9671;SDS011;4874;43.568;27.824;2023-08-12T00:36:10;4.95;;;2.92;;
9671;SDS011;4874;43.568;27.824;2023-08-12T00:38:36;6.65;;;2.90;;
9671;SDS011;4874;43.568;27.824;2023-08-12T00:41:03;4.47;;;3.05;;
9671;SDS011;4874;43.568;27.824;2023-08-12T00:43:30;5.18;;;3.17;;
9671;SDS011;4874;43.568;27.824;2023-08-12T00:45:57;6.18;;;3.47;;
9671;SDS011;4874;43.568;27.824;2023-08-12T00:48:23;4.22;;;3.03;;
9671;SDS011;4874;43.568;27.824;2023-08-12T00:50:51;5.32;;;3.35;;
9671;SDS011;4874;43.568;27.824;2023-08-12T00:53:19;5.95;;;3.28;;
9671;SDS011;4874;43.568;27.824;2023-08-12T00:55:46;4.70;;;3.15;;
9671;SDS011;4874;43.568;27.824;2023-08-12T00:58:13;5.95;;;3.33;;
9671;SDS011;4874;43.568;27.824;2023-08-12T01:00:40;5.20;;;3.42;;
9671;SDS011;4874;43.568;27.824;2023-08-12T01:03:07;5.90;;;3.90;;
9671;SDS011;4874;43.568;27.824;2023-08-12T01:05:34;5.55;;;3.20;;
9671;SDS011;4874;43.568;27.824;2023-08-12T01:08:03;6.93;;;3.53;;
9671;SDS011;4874;43.568;27.824;2023-08-12T01:10:32;4.88;;;3.45;;
9671;SDS011;4874;43.568;27.824;2023-08-12T01:13:18;6.32;;;3.70;;
9671;SDS011;4874;43.568;27.824;2023-08-12T01:15:57;4.82;;;3.22;;
9671;SDS011;4874;43.568;27.824;2023-08-12T01:18:27;7.15;;;3.50;;
9671;SDS011;4874;43.568;27.824;2023-08-12T01:20:54;6.47;;;3.75;;
9671;SDS011;4874;43.568;27.824;2023-08-12T01:23:22;6.47;;;3.60;;
9671;SDS011;4874;43.568;27.824;2023-08-12T01:25:49;4.45;;;3.42;;
9671;SDS011;4874;43.568;27.824;2023-08-12T01:28:17;5.80;;;3.45;;
9671;SDS011;4874;43.568;27.824;2023-08-12T01:30:53;5.97;;;3.45;;
9671;SDS011;4874;43.568;27.824;2023-08-12T01:33:28;5.80;;;3.60;;
9671;SDS011;4874;43.568;27.824;2023-08-12T01:36:15;5.65;;;3.55;;
9671;SDS011;4874;43.568;27.824;2023-08-12T01:38:43;7.22;;;3.45;;
9671;SDS011;4874;43.568;27.824;2023-08-12T01:41:13;5.65;;;3.83;;
9671;SDS011;4874;43.568;27.824;2023-08-12T01:43:43;6.97;;;3.72;;
9671;SDS011;4874;43.568;27.824;2023-08-12T01:46:10;5.20;;;4.00;;
9671;SDS011;4874;43.568;27.824;2023-08-12T01:48:37;6.63;;;3.33;;
9671;SDS011;4874;43.568;27.824;2023-08-12T01:51:04;6.18;;;3.97;;
9671;SDS011;4874;43.568;27.824;2023-08-12T01:53:31;7.15;;;3.55;;
9671;SDS011;4874;43.568;27.824;2023-08-12T01:55:57;4.70;;;3.58;;
9671;SDS011;4874;43.568;27.824;2023-08-12T01:58:24;6.13;;;3.45;;
9671;SDS011;4874;43.568;27.824;2023-08-12T02:00:52;5.53;;;3.80;;
9671;SDS011;4874;43.568;27.824;2023-08-12T02:03:19;5.90;;;3.45;;
9671;SDS011;4874;43.568;27.824;2023-08-12T02:05:46;6.43;;;3.83;;
9671;SDS011;4874;43.568;27.824;2023-08-12T02:08:14;5.55;;;3.50;;
9671;SDS011;4874;43.568;27.824;2023-08-12T02:10:40;6.63;;;3.97;;
9671;SDS011;4874;43.568;27.824;2023-08-12T02:13:07;6.57;;;4.10;;
9671;SDS011;4874;43.568;27.824;2023-08-12T02:15:34;6.35;;;3.47;;
9671;SDS011;4874;43.568;27.824;2023-08-12T02:18:00;5.75;;;4.10;;
9671;SDS011;4874;43.568;27.824;2023-08-12T02:20:28;8.52;;;5.20;;
9671;SDS011;4874;43.568;27.824;2023-08-12T02:22:54;6.50;;;4.72;;
9671;SDS011;4874;43.568;27.824;2023-08-12T02:25:21;10.35;;;5.95;;
9671;SDS011;4874;43.568;27.824;2023-08-12T02:27:48;10.60;;;5.63;;
9671;SDS011;4874;43.568;27.824;2023-08-12T02:30:15;7.65;;;4.88;;
9671;SDS011;4874;43.568;27.824;2023-08-12T02:32:41;9.05;;;5.18;;
9671;SDS011;4874;43.568;27.824;2023-08-12T02:35:09;6.95;;;4.47;;
9671;SDS011;4874;43.568;27.824;2023-08-12T02:37:37;6.93;;;3.85;;
9671;SDS011;4874;43.568;27.824;2023-08-12T02:40:04;8.80;;;5.15;;
9671;SDS011;4874;43.568;27.824;2023-08-12T02:42:31;9.00;;;5.90;;
9671;SDS011;4874;43.568;27.824;2023-08-12T02:44:58;7.93;;;6.18;;
9671;SDS011;4874;43.568;27.824;2023-08-12T02:47:26;8.73;;;5.18;;
9671;SDS011;4874;43.568;27.824;2023-08-12T02:49:53;13.05;;;4.90;;
9671;SDS011;4874;43.568;27.824;2023-08-12T02:52:20;7.63;;;4.40;;
9671;SDS011;4874;43.568;27.824;2023-08-12T02:54:47;9.85;;;5.45;;
9671;SDS011;4874;43.568;27.824;2023-08-12T02:57:14;7.95;;;5.43;;
9671;SDS011;4874;43.568;27.824;2023-08-12T02:59:41;10.23;;;6.05;;
9671;SDS011;4874;43.568;27.824;2023-08-12T03:02:07;12.00;;;5.82;;
9671;SDS011;4874;43.568;27.824;2023-08-12T03:04:34;6.85;;;5.03;;
9671;SDS011;4874;43.568;27.824;2023-08-12T03:07:01;8.57;;;4.78;;
9671;SDS011;4874;43.568;27.824;2023-08-12T03:09:29;6.45;;;4.22;;
9671;SDS011;4874;43.568;27.824;2023-08-12T03:11:56;10.50;;;4.80;;
9671;SDS011;4874;43.568;27.824;2023-08-12T03:14:22;6.15;;;4.38;;
9671;SDS011;4874;43.568;27.824;2023-08-12T03:16:49;6.20;;;3.90;;
9671;SDS011;4874;43.568;27.824;2023-08-12T03:19:16;7.15;;;4.10;;
9671;SDS011;4874;43.568;27.824;2023-08-12T03:21:42;9.05;;;4.53;;
9671;SDS011;4874;43.568;27.824;2023-08-12T03:24:09;8.43;;;4.93;;
9671;SDS011;4874;43.568;27.824;2023-08-12T03:26:36;7.00;;;4.72;;
9671;SDS011;4874;43.568;27.824;2023-08-12T03:29:03;8.18;;;4.43;;
9671;SDS011;4874;43.568;27.824;2023-08-12T03:31:30;7.88;;;4.45;;
9671;SDS011;4874;43.568;27.824;2023-08-12T03:33:57;6.57;;;4.50;;
9671;SDS011;4874;43.568;27.824;2023-08-12T03:36:23;6.40;;;4.07;;
9671;SDS011;4874;43.568;27.824;2023-08-12T03:38:50;7.00;;;4.00;;
9671;SDS011;4874;43.568;27.824;2023-08-12T03:41:17;6.75;;;4.22;;
9671;SDS011;4874;43.568;27.824;2023-08-12T03:43:44;6.22;;;4.03;;
9671;SDS011;4874;43.568;27.824;2023-08-12T03:46:11;6.18;;;4.22;;
9671;SDS011;4874;43.568;27.824;2023-08-12T03:48:37;8.15;;;4.15;;
9671;SDS011;4874;43.568;27.824;2023-08-12T03:51:04;8.68;;;4.40;;
9671;SDS011;4874;43.568;27.824;2023-08-12T03:53:31;7.60;;;4.03;;
9671;SDS011;4874;43.568;27.824;2023-08-12T03:55:58;9.05;;;4.38;;
9671;SDS011;4874;43.568;27.824;2023-08-12T03:58:24;6.20;;;4.30;;
9671;SDS011;4874;43.568;27.824;2023-08-12T04:00:51;6.28;;;4.25;;
9671;SDS011;4874;43.568;27.824;2023-08-12T04:03:18;7.75;;;4.15;;
9671;SDS011;4874;43.568;27.824;2023-08-12T04:05:48;6.15;;;4.55;;
9671;SDS011;4874;43.568;27.824;2023-08-12T04:08:21;8.13;;;5.05;;
9671;SDS011;4874;43.568;27.824;2023-08-12T04:10:49;9.75;;;5.25;;
9671;SDS011;4874;43.568;27.824;2023-08-12T04:13:17;9.45;;;4.85;;
9671;SDS011;4874;43.568;27.824;2023-08-12T04:15:47;8.07;;;4.45;;
9671;SDS011;4874;43.568;27.824;2023-08-12T04:18:15;7.50;;;4.60;;
9671;SDS011;4874;43.568;27.824;2023-08-12T04:20:42;7.00;;;4.82;;
9671;SDS011;4874;43.568;27.824;2023-08-12T04:23:09;7.13;;;4.80;;
9671;SDS011;4874;43.568;27.824;2023-08-12T04:25:35;7.20;;;5.03;;
9671;SDS011;4874;43.568;27.824;2023-08-12T04:28:02;8.95;;;4.88;;
9671;SDS011;4874;43.568;27.824;2023-08-12T04:30:29;8.80;;;4.93;;
9671;SDS011;4874;43.568;27.824;2023-08-12T04:32:56;8.43;;;4.85;;
9671;SDS011;4874;43.568;27.824;2023-08-12T04:35:23;8.07;;;5.10;;
9671;SDS011;4874;43.568;27.824;2023-08-12T04:37:49;9.13;;;5.15;;
9671;SDS011;4874;43.568;27.824;2023-08-12T04:40:16;10.65;;;5.07;;
9671;SDS011;4874;43.568;27.824;2023-08-12T04:42:43;10.90;;;5.40;;
9671;SDS011;4874;43.568;27.824;2023-08-12T04:45:10;9.43;;;4.75;;
9671;SDS011;4874;43.568;27.824;2023-08-12T04:47:36;9.43;;;5.45;;
9671;SDS011;4874;43.568;27.824;2023-08-12T04:50:03;10.45;;;5.93;;
9671;SDS011;4874;43.568;27.824;2023-08-12T04:52:30;9.35;;;5.35;;
9671;SDS011;4874;43.568;27.824;2023-08-12T04:54:57;8.18;;;5.47;;
9671;SDS011;4874;43.568;27.824;2023-08-12T04:57:24;13.27;;;5.75;;
9671;SDS011;4874;43.568;27.824;2023-08-12T04:59:52;8.75;;;5.53;;
9671;SDS011;4874;43.568;27.824;2023-08-12T05:02:20;13.20;;;5.75;;
9671;SDS011;4874;43.568;27.824;2023-08-12T05:04:48;10.63;;;5.85;;
9671;SDS011;4874;43.568;27.824;2023-08-12T05:07:16;9.52;;;6.57;;
9671;SDS011;4874;43.568;27.824;2023-08-12T05:09:43;10.40;;;6.22;;
9671;SDS011;4874;43.568;27.824;2023-08-12T05:12:10;9.52;;;5.88;;
9671;SDS011;4874;43.568;27.824;2023-08-12T05:14:39;8.63;;;5.57;;
9671;SDS011;4874;43.568;27.824;2023-08-12T05:17:06;14.93;;;6.32;;
9671;SDS011;4874;43.568;27.824;2023-08-12T05:19:32;10.48;;;6.28;;
9671;SDS011;4874;43.568;27.824;2023-08-12T05:21:59;11.98;;;6.25;;
9671;SDS011;4874;43.568;27.824;2023-08-12T05:24:26;13.25;;;5.85;;
9671;SDS011;4874;43.568;27.824;2023-08-12T05:26:53;8.77;;;5.72;;
9671;SDS011;4874;43.568;27.824;2023-08-12T05:29:19;8.68;;;6.15;;
9671;SDS011;4874;43.568;27.824;2023-08-12T05:31:46;9.82;;;6.28;;
9671;SDS011;4874;43.568;27.824;2023-08-12T05:34:13;10.15;;;6.53;;
9671;SDS011;4874;43.568;27.824;2023-08-12T05:36:40;9.68;;;6.13;;
9671;SDS011;4874;43.568;27.824;2023-08-12T05:39:06;8.40;;;5.55;;
9671;SDS011;4874;43.568;27.824;2023-08-12T05:41:33;9.43;;;6.00;;
9671;SDS011;4874;43.568;27.824;2023-08-12T05:44:00;9.10;;;5.72;;
9671;SDS011;4874;43.568;27.824;2023-08-12T05:46:26;7.80;;;5.70;;
9671;SDS011;4874;43.568;27.824;2023-08-12T05:48:53;7.93;;;5.53;;
9671;SDS011;4874;43.568;27.824;2023-08-12T05:51:20;7.55;;;5.68;;
9671;SDS011;4874;43.568;27.824;2023-08-12T05:53:48;8.07;;;5.55;;
9671;SDS011;4874;43.568;27.824;2023-08-12T05:56:14;9.60;;;5.50;;
9671;SDS011;4874;43.568;27.824;2023-08-12T05:58:41;8.35;;;5.50;;
9671;SDS011;4874;43.568;27.824;2023-08-12T06:01:08;6.30;;;5.05;;
9671;SDS011;4874;43.568;27.824;2023-08-12T06:03:35;8.40;;;5.13;;
9671;SDS011;4874;43.568;27.824;2023-08-12T06:06:02;8.48;;;4.88;;
9671;SDS011;4874;43.568;27.824;2023-08-12T06:08:29;6.97;;;4.95;;
9671;SDS011;4874;43.568;27.824;2023-08-12T06:10:56;8.13;;;5.03;;
9671;SDS011;4874;43.568;27.824;2023-08-12T06:13:23;7.25;;;5.00;;
9671;SDS011;4874;43.568;27.824;2023-08-12T06:15:50;7.78;;;4.68;;
9671;SDS011;4874;43.568;27.824;2023-08-12T06:18:17;8.02;;;5.22;;
9671;SDS011;4874;43.568;27.824;2023-08-12T06:20:43;6.85;;;4.88;;
9671;SDS011;4874;43.568;27.824;2023-08-12T06:23:10;5.43;;;4.13;;
9671;SDS011;4874;43.568;27.824;2023-08-12T06:25:37;6.70;;;4.68;;
9671;SDS011;4874;43.568;27.824;2023-08-12T06:28:03;8.05;;;4.90;;
9671;SDS011;4874;43.568;27.824;2023-08-12T06:30:35;6.57;;;4.55;;
9671;SDS011;4874;43.568;27.824;2023-08-12T06:33:02;6.22;;;4.43;;
9671;SDS011;4874;43.568;27.824;2023-08-12T06:35:29;5.50;;;4.32;;
9671;SDS011;4874;43.568;27.824;2023-08-12T06:37:55;7.50;;;5.28;;
9671;SDS011;4874;43.568;27.824;2023-08-12T06:40:22;8.65;;;4.75;;
9671;SDS011;4874;43.568;27.824;2023-08-12T06:42:49;6.40;;;3.75;;
9671;SDS011;4874;43.568;27.824;2023-08-12T06:45:16;6.55;;;4.13;;
9671;SDS011;4874;43.568;27.824;2023-08-12T06:47:42;6.85;;;4.13;;
9671;SDS011;4874;43.568;27.824;2023-08-12T06:50:09;6.80;;;4.20;;
9671;SDS011;4874;43.568;27.824;2023-08-12T06:52:36;6.18;;;4.28;;
9671;SDS011;4874;43.568;27.824;2023-08-12T06:55:03;6.82;;;4.07;;
9671;SDS011;4874;43.568;27.824;2023-08-12T06:57:30;8.95;;;4.43;;
9671;SDS011;4874;43.568;27.824;2023-08-12T06:59:57;9.15;;;5.03;;
9671;SDS011;4874;43.568;27.824;2023-08-12T07:02:26;7.32;;;4.75;;
9671;SDS011;4874;43.568;27.824;2023-08-12T07:04:53;5.32;;;3.83;;
9671;SDS011;4874;43.568;27.824;2023-08-12T07:07:29;6.13;;;3.65;;
9671;SDS011;4874;43.568;27.824;2023-08-12T07:09:56;6.28;;;4.15;;
9671;SDS011;4874;43.568;27.824;2023-08-12T07:12:23;13.15;;;3.88;;
9671;SDS011;4874;43.568;27.824;2023-08-12T07:14:50;6.05;;;3.70;;
9671;SDS011;4874;43.568;27.824;2023-08-12T07:17:17;5.63;;;3.65;;
9671;SDS011;4874;43.568;27.824;2023-08-12T07:19:44;7.13;;;3.63;;
9671;SDS011;4874;43.568;27.824;2023-08-12T07:22:11;5.90;;;3.95;;
9671;SDS011;4874;43.568;27.824;2023-08-12T07:24:38;5.85;;;3.65;;
9671;SDS011;4874;43.568;27.824;2023-08-12T07:27:04;6.03;;;3.47;;
9671;SDS011;4874;43.568;27.824;2023-08-12T07:29:33;4.40;;;3.58;;
9671;SDS011;4874;43.568;27.824;2023-08-12T07:31:59;5.45;;;4.07;;
9671;SDS011;4874;43.568;27.824;2023-08-12T07:34:26;6.20;;;3.17;;
9671;SDS011;4874;43.568;27.824;2023-08-12T07:36:56;5.38;;;3.78;;
9671;SDS011;4874;43.568;27.824;2023-08-12T07:39:23;7.38;;;3.15;;
9671;SDS011;4874;43.568;27.824;2023-08-12T07:41:49;6.05;;;3.50;;
9671;SDS011;4874;43.568;27.824;2023-08-12T07:44:16;8.23;;;3.85;;
9671;SDS011;4874;43.568;27.824;2023-08-12T07:46:43;5.70;;;3.42;;
9671;SDS011;4874;43.568;27.824;2023-08-12T07:49:10;8.05;;;3.30;;
9671;SDS011;4874;43.568;27.824;2023-08-12T07:51:37;5.00;;;3.35;;
9671;SDS011;4874;43.568;27.824;2023-08-12T07:54:04;6.80;;;3.10;;
9671;SDS011;4874;43.568;27.824;2023-08-12T07:56:31;6.70;;;3.25;;
9671;SDS011;4874;43.568;27.824;2023-08-12T07:58:58;6.07;;;3.83;;
9671;SDS011;4874;43.568;27.824;2023-08-12T08:01:25;5.55;;;3.40;;
9671;SDS011;4874;43.568;27.824;2023-08-12T08:03:51;5.47;;;3.38;;
9671;SDS011;4874;43.568;27.824;2023-08-12T08:06:18;5.50;;;2.97;;
9671;SDS011;4874;43.568;27.824;2023-08-12T08:08:45;5.53;;;3.60;;
9671;SDS011;4874;43.568;27.824;2023-08-12T08:11:12;7.03;;;3.17;;
9671;SDS011;4874;43.568;27.824;2023-08-12T08:13:38;5.30;;;3.53;;
9671;SDS011;4874;43.568;27.824;2023-08-12T08:16:05;3.90;;;2.90;;
9671;SDS011;4874;43.568;27.824;2023-08-12T08:18:32;5.38;;;3.25;;
9671;SDS011;4874;43.568;27.824;2023-08-12T08:20:59;6.13;;;3.53;;
9671;SDS011;4874;43.568;27.824;2023-08-12T08:23:30;5.78;;;3.28;;
9671;SDS011;4874;43.568;27.824;2023-08-12T08:25:57;7.07;;;3.33;;
9671;SDS011;4874;43.568;27.824;2023-08-12T08:28:24;5.15;;;3.35;;
9671;SDS011;4874;43.568;27.824;2023-08-12T08:30:52;5.18;;;3.05;;
9671;SDS011;4874;43.568;27.824;2023-08-12T08:33:18;5.03;;;3.15;;
9671;SDS011;4874;43.568;27.824;2023-08-12T08:35:45;6.30;;;3.20;;
9671;SDS011;4874;43.568;27.824;2023-08-12T08:38:12;8.32;;;3.08;;
9671;SDS011;4874;43.568;27.824;2023-08-12T08:40:39;4.22;;;3.05;;
9671;SDS011;4874;43.568;27.824;2023-08-12T08:43:06;4.70;;;3.20;;
9671;SDS011;4874;43.568;27.824;2023-08-12T08:45:34;8.95;;;3.63;;
9671;SDS011;4874;43.568;27.824;2023-08-12T08:48:01;6.28;;;3.22;;
9671;SDS011;4874;43.568;27.824;2023-08-12T08:50:32;5.15;;;3.10;;
9671;SDS011;4874;43.568;27.824;2023-08-12T08:52:59;4.50;;;2.85;;
9671;SDS011;4874;43.568;27.824;2023-08-12T08:55:29;4.70;;;3.20;;
9671;SDS011;4874;43.568;27.824;2023-08-12T08:57:56;4.60;;;3.05;;
9671;SDS011;4874;43.568;27.824;2023-08-12T09:00:26;5.18;;;3.30;;
9671;SDS011;4874;43.568;27.824;2023-08-12T09:02:54;4.10;;;2.88;;
9671;SDS011;4874;43.568;27.824;2023-08-12T09:05:23;5.18;;;3.50;;
9671;SDS011;4874;43.568;27.824;2023-08-12T09:07:52;6.13;;;3.03;;
9671;SDS011;4874;43.568;27.824;2023-08-12T09:10:21;5.43;;;3.10;;
9671;SDS011;4874;43.568;27.824;2023-08-12T09:12:51;5.03;;;3.85;;
9671;SDS011;4874;43.568;27.824;2023-08-12T09:15:19;4.47;;;3.10;;
9671;SDS011;4874;43.568;27.824;2023-08-12T09:17:45;3.72;;;2.45;;
9671;SDS011;4874;43.568;27.824;2023-08-12T09:20:12;5.97;;;3.05;;
9671;SDS011;4874;43.568;27.824;2023-08-12T09:22:39;5.45;;;3.35;;
9671;SDS011;4874;43.568;27.824;2023-08-12T09:25:09;6.30;;;3.00;;
9671;SDS011;4874;43.568;27.824;2023-08-12T09:27:41;4.75;;;2.78;;
9671;SDS011;4874;43.568;27.824;2023-08-12T09:30:13;3.78;;;2.85;;
9671;SDS011;4874;43.568;27.824;2023-08-12T09:32:40;4.80;;;2.80;;
9671;SDS011;4874;43.568;27.824;2023-08-12T09:35:11;5.53;;;2.80;;
9671;SDS011;4874;43.568;27.824;2023-08-12T09:37:42;6.50;;;2.97;;
9671;SDS011;4874;43.568;27.824;2023-08-12T09:40:09;4.55;;;3.20;;
9671;SDS011;4874;43.568;27.824;2023-08-12T09:42:44;5.32;;;3.03;;
9671;SDS011;4874;43.568;27.824;2023-08-12T09:45:12;5.32;;;3.28;;
9671;SDS011;4874;43.568;27.824;2023-08-12T09:47:39;5.93;;;3.45;;
9671;SDS011;4874;43.568;27.824;2023-08-12T09:50:08;8.10;;;3.35;;
9671;SDS011;4874;43.568;27.824;2023-08-12T09:52:35;6.45;;;3.38;;
9671;SDS011;4874;43.568;27.824;2023-08-12T09:55:02;5.65;;;2.75;;
9671;SDS011;4874;43.568;27.824;2023-08-12T09:57:31;5.00;;;2.72;;
9671;SDS011;4874;43.568;27.824;2023-08-12T10:00:03;4.55;;;3.10;;
9671;SDS011;4874;43.568;27.824;2023-08-12T10:02:33;6.32;;;3.15;;
9671;SDS011;4874;43.568;27.824;2023-08-12T10:05:00;4.47;;;2.90;;
9671;SDS011;4874;43.568;27.824;2023-08-12T10:07:28;5.35;;;2.78;;
9671;SDS011;4874;43.568;27.824;2023-08-12T10:09:55;6.15;;;3.13;;
9671;SDS011;4874;43.568;27.824;2023-08-12T10:12:22;4.35;;;2.95;;
9671;SDS011;4874;43.568;27.824;2023-08-12T10:14:49;5.28;;;2.90;;
9671;SDS011;4874;43.568;27.824;2023-08-12T10:17:17;4.22;;;2.80;;
9671;SDS011;4874;43.568;27.824;2023-08-12T10:20:03;3.80;;;2.53;;
9671;SDS011;4874;43.568;27.824;2023-08-12T10:22:31;6.50;;;3.10;;
9671;SDS011;4874;43.568;27.824;2023-08-12T10:24:59;5.80;;;2.92;;
9671;SDS011;4874;43.568;27.824;2023-08-12T10:27:28;7.47;;;2.95;;
9671;SDS011;4874;43.568;27.824;2023-08-12T10:29:56;5.35;;;3.15;;
9671;SDS011;4874;43.568;27.824;2023-08-12T10:32:26;6.90;;;2.95;;
9671;SDS011;4874;43.568;27.824;2023-08-12T10:34:54;6.03;;;2.50;;
9671;SDS011;4874;43.568;27.824;2023-08-12T10:37:23;4.93;;;2.75;;
9671;SDS011;4874;43.568;27.824;2023-08-12T10:39:53;4.93;;;2.85;;
9671;SDS011;4874;43.568;27.824;2023-08-12T10:45:09;5.78;;;2.63;;
9671;SDS011;4874;43.568;27.824;2023-08-12T10:47:37;4.10;;;2.75;;
9671;SDS011;4874;43.568;27.824;2023-08-12T10:50:21;6.68;;;2.95;;
9671;SDS011;4874;43.568;27.824;2023-08-12T10:52:52;4.78;;;2.63;;
9671;SDS011;4874;43.568;27.824;2023-08-12T10:55:21;4.57;;;2.70;;
9671;SDS011;4874;43.568;27.824;2023-08-12T10:57:49;4.30;;;2.78;;
9671;SDS011;4874;43.568;27.824;2023-08-12T11:00:27;4.35;;;2.72;;
9671;SDS011;4874;43.568;27.824;2023-08-12T11:02:56;5.75;;;2.80;;
9671;SDS011;4874;43.568;27.824;2023-08-12T11:05:24;4.78;;;2.53;;
9671;SDS011;4874;43.568;27.824;2023-08-12T11:08:03;6.53;;;2.83;;
9671;SDS011;4874;43.568;27.824;2023-08-12T11:10:33;3.90;;;2.63;;
9671;SDS011;4874;43.568;27.824;2023-08-12T11:13:01;5.25;;;3.08;;
9671;SDS011;4874;43.568;27.824;2023-08-12T11:15:30;5.15;;;2.85;;
9671;SDS011;4874;43.568;27.824;2023-08-12T11:20:34;4.25;;;2.65;;
9671;SDS011;4874;43.568;27.824;2023-08-12T11:23:05;4.95;;;2.80;;
9671;SDS011;4874;43.568;27.824;2023-08-12T11:25:33;4.78;;;2.90;;
9671;SDS011;4874;43.568;27.824;2023-08-12T11:28:01;5.28;;;2.60;;
9671;SDS011;4874;43.568;27.824;2023-08-12T11:30:30;4.07;;;2.88;;
9671;SDS011;4874;43.568;27.824;2023-08-12T11:32:58;4.20;;;2.70;;
9671;SDS011;4874;43.568;27.824;2023-08-12T11:35:26;4.10;;;2.65;;
9671;SDS011;4874;43.568;27.824;2023-08-12T11:37:56;5.70;;;2.97;;
9671;SDS011;4874;43.568;27.824;2023-08-12T11:40:25;4.53;;;2.92;;
9671;SDS011;4874;43.568;27.824;2023-08-12T11:42:54;3.58;;;2.28;;
9671;SDS011;4874;43.568;27.824;2023-08-12T11:45:21;4.28;;;2.83;;
9671;SDS011;4874;43.568;27.824;2023-08-12T11:47:50;4.93;;;2.65;;
9671;SDS011;4874;43.568;27.824;2023-08-12T11:50:22;5.43;;;2.78;;
9671;SDS011;4874;43.568;27.824;2023-08-12T11:52:50;4.28;;;2.70;;
9671;SDS011;4874;43.568;27.824;2023-08-12T11:55:18;4.07;;;2.80;;
9671;SDS011;4874;43.568;27.824;2023-08-12T11:57:45;5.53;;;2.70;;
9671;SDS011;4874;43.568;27.824;2023-08-12T12:00:12;4.10;;;2.40;;
9671;SDS011;4874;43.568;27.824;2023-08-12T12:02:48;5.45;;;2.90;;
9671;SDS011;4874;43.568;27.824;2023-08-12T12:05:21;5.53;;;2.72;;
9671;SDS011;4874;43.568;27.824;2023-08-12T12:07:50;4.55;;;2.80;;
9671;SDS011;4874;43.568;27.824;2023-08-12T12:10:18;3.80;;;2.42;;
9671;SDS011;4874;43.568;27.824;2023-08-12T12:13:00;5.97;;;2.75;;
9671;SDS011;4874;43.568;27.824;2023-08-12T12:15:27;6.18;;;2.72;;
9671;SDS011;4874;43.568;27.824;2023-08-12T12:17:54;4.20;;;2.70;;
9671;SDS011;4874;43.568;27.824;2023-08-12T12:20:21;4.30;;;2.80;;
9671;SDS011;4874;43.568;27.824;2023-08-12T12:22:48;7.47;;;2.67;;
9671;SDS011;4874;43.568;27.824;2023-08-12T12:25:15;5.38;;;2.83;;
9671;SDS011;4874;43.568;27.824;2023-08-12T12:27:46;8.68;;;2.60;;
9671;SDS011;4874;43.568;27.824;2023-08-12T12:30:13;4.22;;;2.33;;
9671;SDS011;4874;43.568;27.824;2023-08-12T12:32:42;6.40;;;3.40;;
9671;SDS011;4874;43.568;27.824;2023-08-12T12:35:10;4.50;;;2.55;;
9671;SDS011;4874;43.568;27.824;2023-08-12T12:37:37;8.77;;;3.10;;
9671;SDS011;4874;43.568;27.824;2023-08-12T12:40:04;4.32;;;2.60;;
9671;SDS011;4874;43.568;27.824;2023-08-12T12:42:32;4.63;;;2.88;;
9671;SDS011;4874;43.568;27.824;2023-08-12T12:44:59;5.20;;;2.70;;
9671;SDS011;4874;43.568;27.824;2023-08-12T12:47:25;4.53;;;2.45;;
9671;SDS011;4874;43.568;27.824;2023-08-12T12:49:52;6.88;;;3.00;;
9671;SDS011;4874;43.568;27.824;2023-08-12T12:52:19;3.42;;;2.50;;
9671;SDS011;4874;43.568;27.824;2023-08-12T12:54:46;3.78;;;2.67;;
9671;SDS011;4874;43.568;27.824;2023-08-12T12:57:12;5.40;;;2.70;;
9671;SDS011;4874;43.568;27.824;2023-08-12T12:59:39;6.07;;;2.97;;
9671;SDS011;4874;43.568;27.824;2023-08-12T13:02:06;4.78;;;2.53;;
9671;SDS011;4874;43.568;27.824;2023-08-12T13:04:33;4.75;;;2.55;;
9671;SDS011;4874;43.568;27.824;2023-08-12T13:06:59;5.53;;;2.85;;
9671;SDS011;4874;43.568;27.824;2023-08-12T13:09:26;4.47;;;2.95;;
9671;SDS011;4874;43.568;27.824;2023-08-12T13:11:53;4.25;;;2.50;;
9671;SDS011;4874;43.568;27.824;2023-08-12T13:14:23;3.97;;;2.63;;
9671;SDS011;4874;43.568;27.824;2023-08-12T13:16:50;4.35;;;2.85;;
9671;SDS011;4874;43.568;27.824;2023-08-12T13:19:17;4.47;;;2.70;;
9671;SDS011;4874;43.568;27.824;2023-08-12T13:21:44;4.63;;;2.90;;
9671;SDS011;4874;43.568;27.824;2023-08-12T13:24:10;4.30;;;2.58;;
9671;SDS011;4874;43.568;27.824;2023-08-12T13:26:37;5.82;;;4.45;;
9671;SDS011;4874;43.568;27.824;2023-08-12T13:29:04;9.55;;;5.18;;
9671;SDS011;4874;43.568;27.824;2023-08-12T13:31:31;4.55;;;3.10;;
9671;SDS011;4874;43.568;27.824;2023-08-12T13:33:58;5.20;;;3.10;;
9671;SDS011;4874;43.568;27.824;2023-08-12T13:36:24;5.10;;;2.83;;
9671;SDS011;4874;43.568;27.824;2023-08-12T13:38:51;4.57;;;2.72;;
9671;SDS011;4874;43.568;27.824;2023-08-12T13:41:18;4.60;;;2.38;;
9671;SDS011;4874;43.568;27.824;2023-08-12T13:43:45;4.65;;;2.67;;
9671;SDS011;4874;43.568;27.824;2023-08-12T13:46:12;4.57;;;2.80;;
9671;SDS011;4874;43.568;27.824;2023-08-12T13:48:39;4.75;;;2.72;;
9671;SDS011;4874;43.568;27.824;2023-08-12T13:51:07;6.45;;;3.17;;
9671;SDS011;4874;43.568;27.824;2023-08-12T13:53:34;4.97;;;3.15;;
9671;SDS011;4874;43.568;27.824;2023-08-12T13:56:00;4.90;;;2.45;;
9671;SDS011;4874;43.568;27.824;2023-08-12T13:58:27;5.90;;;2.42;;
9671;SDS011;4874;43.568;27.824;2023-08-12T14:00:54;5.63;;;2.60;;
9671;SDS011;4874;43.568;27.824;2023-08-12T14:03:21;5.38;;;2.58;;
9671;SDS011;4874;43.568;27.824;2023-08-12T14:05:47;5.80;;;2.63;;
9671;SDS011;4874;43.568;27.824;2023-08-12T14:08:14;4.15;;;2.30;;
9671;SDS011;4874;43.568;27.824;2023-08-12T14:10:41;5.13;;;3.10;;
9671;SDS011;4874;43.568;27.824;2023-08-12T14:13:08;5.50;;;2.42;;
9671;SDS011;4874;43.568;27.824;2023-08-12T14:15:34;4.63;;;2.60;;
9671;SDS011;4874;43.568;27.824;2023-08-12T14:18:01;5.13;;;2.47;;
9671;SDS011;4874;43.568;27.824;2023-08-12T14:20:29;4.70;;;2.42;;
9671;SDS011;4874;43.568;27.824;2023-08-12T14:22:56;6.25;;;2.88;;
9671;SDS011;4874;43.568;27.824;2023-08-12T14:25:23;4.00;;;2.25;;
9671;SDS011;4874;43.568;27.824;2023-08-12T14:27:50;4.90;;;2.70;;
9671;SDS011;4874;43.568;27.824;2023-08-12T14:30:18;4.40;;;2.80;;
9671;SDS011;4874;43.568;27.824;2023-08-12T14:32:46;5.78;;;2.20;;
9671;SDS011;4874;43.568;27.824;2023-08-12T14:35:14;4.18;;;2.30;;
9671;SDS011;4874;43.568;27.824;2023-08-12T14:37:41;5.13;;;2.28;;
9671;SDS011;4874;43.568;27.824;2023-08-12T14:40:08;5.82;;;2.67;;
9671;SDS011;4874;43.568;27.824;2023-08-12T14:42:35;3.92;;;2.40;;
9671;SDS011;4874;43.568;27.824;2023-08-12T14:45:02;4.80;;;2.40;;
9671;SDS011;4874;43.568;27.824;2023-08-12T14:47:30;4.72;;;2.63;;
9671;SDS011;4874;43.568;27.824;2023-08-12T14:49:57;6.00;;;3.25;;
9671;SDS011;4874;43.568;27.824;2023-08-12T14:52:24;4.55;;;2.60;;
9671;SDS011;4874;43.568;27.824;2023-08-12T14:54:50;3.78;;;2.28;;
9671;SDS011;4874;43.568;27.824;2023-08-12T14:57:17;5.32;;;2.33;;
9671;SDS011;4874;43.568;27.824;2023-08-12T14:59:44;4.25;;;2.60;;
9671;SDS011;4874;43.568;27.824;2023-08-12T15:02:17;5.95;;;2.60;;
9671;SDS011;4874;43.568;27.824;2023-08-12T15:04:46;5.38;;;2.70;;
9671;SDS011;4874;43.568;27.824;2023-08-12T15:07:13;5.10;;;3.05;;
9671;SDS011;4874;43.568;27.824;2023-08-12T15:09:40;4.90;;;2.60;;